Newington, Virginia
Current Conditions -  °F | °C
As of 11:58 AM on Thursday 30 Oct 2014 (Local Time) from KDAA Reporting Station
Clear Clear  
Wind Chill: 58°   Ceiling: Unl
Heat Index: 58°   Visibility: 10mi
Dew Point: 36°   Wind: 14mph
Humidity: 45%   Direction: 310°NW
Pressure: 30.08"   Gusts: NA
Location:  38.74°N, 77.18°W
Report Text: KDAA 301558Z AUTO 31012KT 10SM CLR 14/02 A3008 RMK AO2 SLP189 T01420023
Loading
Personal Weather Stations






























Interactive Weather Map
Tropical Storm Tracking
New forecast layout! Learn more

10-Day Weather Forecast

Advertisements
Track Severe Weather on mobile